sensor_id;sensor_type;location;lat;lon;timestamp;P1;durP1;ratioP1;P2;durP2;ratioP2
29026;SDS011;16120;48.608;9.092;2023-03-04T00:03:10;119.30;;;22.97;;
29026;SDS011;16120;48.608;9.092;2023-03-04T00:07:07;110.53;;;23.13;;
29026;SDS011;16120;48.608;9.092;2023-03-04T00:11:02;113.43;;;23.87;;
29026;SDS011;16120;48.608;9.092;2023-03-04T00:14:58;108.03;;;22.50;;
29026;SDS011;16120;48.608;9.092;2023-03-04T00:18:53;111.72;;;23.52;;
29026;SDS011;16120;48.608;9.092;2023-03-04T00:22:49;114.68;;;23.40;;
29026;SDS011;16120;48.608;9.092;2023-03-04T00:26:44;115.37;;;25.50;;
29026;SDS011;16120;48.608;9.092;2023-03-04T00:30:40;111.37;;;24.87;;
29026;SDS011;16120;48.608;9.092;2023-03-04T00:34:35;110.87;;;24.90;;
29026;SDS011;16120;48.608;9.092;2023-03-04T00:38:31;110.17;;;23.83;;
29026;SDS011;16120;48.608;9.092;2023-03-04T00:42:27;116.57;;;23.70;;
29026;SDS011;16120;48.608;9.092;2023-03-04T00:46:22;110.77;;;23.47;;
29026;SDS011;16120;48.608;9.092;2023-03-04T00:50:17;108.67;;;22.20;;
29026;SDS011;16120;48.608;9.092;2023-03-04T00:54:14;115.47;;;21.90;;
29026;SDS011;16120;48.608;9.092;2023-03-04T00:58:09;108.20;;;22.23;;
29026;SDS011;16120;48.608;9.092;2023-03-04T01:02:04;109.83;;;23.97;;
29026;SDS011;16120;48.608;9.092;2023-03-04T01:05:59;109.10;;;23.98;;
29026;SDS011;16120;48.608;9.092;2023-03-04T01:09:56;111.23;;;23.37;;
29026;SDS011;16120;48.608;9.092;2023-03-04T01:13:51;112.33;;;24.13;;
29026;SDS011;16120;48.608;9.092;2023-03-04T01:17:46;109.13;;;23.43;;
29026;SDS011;16120;48.608;9.092;2023-03-04T01:21:42;108.27;;;24.30;;
29026;SDS011;16120;48.608;9.092;2023-03-04T01:25:39;111.18;;;23.67;;
29026;SDS011;16120;48.608;9.092;2023-03-04T01:29:34;117.07;;;23.33;;
29026;SDS011;16120;48.608;9.092;2023-03-04T01:33:30;110.67;;;23.37;;
29026;SDS011;16120;48.608;9.092;2023-03-04T01:37:25;115.43;;;22.67;;
29026;SDS011;16120;48.608;9.092;2023-03-04T01:41:26;112.33;;;24.50;;
29026;SDS011;16120;48.608;9.092;2023-03-04T01:45:21;111.27;;;22.80;;
29026;SDS011;16120;48.608;9.092;2023-03-04T01:49:16;106.97;;;23.60;;
29026;SDS011;16120;48.608;9.092;2023-03-04T01:57:15;116.73;;;23.67;;
29026;SDS011;16120;48.608;9.092;2023-03-04T02:01:11;111.33;;;24.63;;
29026;SDS011;16120;48.608;9.092;2023-03-04T02:05:07;109.70;;;22.70;;
29026;SDS011;16120;48.608;9.092;2023-03-04T02:09:03;108.83;;;23.97;;
29026;SDS011;16120;48.608;9.092;2023-03-04T02:13:00;108.80;;;23.20;;
29026;SDS011;16120;48.608;9.092;2023-03-04T02:16:55;112.50;;;22.53;;
29026;SDS011;16120;48.608;9.092;2023-03-04T02:20:53;114.87;;;24.23;;
29026;SDS011;16120;48.608;9.092;2023-03-04T02:24:51;113.00;;;22.47;;
29026;SDS011;16120;48.608;9.092;2023-03-04T02:28:50;109.53;;;23.27;;
29026;SDS011;16120;48.608;9.092;2023-03-04T02:32:45;110.80;;;23.13;;
29026;SDS011;16120;48.608;9.092;2023-03-04T02:36:41;109.63;;;24.30;;
29026;SDS011;16120;48.608;9.092;2023-03-04T02:40:36;110.63;;;23.33;;
29026;SDS011;16120;48.608;9.092;2023-03-04T02:44:35;113.67;;;25.07;;
29026;SDS011;16120;48.608;9.092;2023-03-04T02:48:30;113.83;;;24.17;;
29026;SDS011;16120;48.608;9.092;2023-03-04T02:52:25;108.70;;;23.53;;
29026;SDS011;16120;48.608;9.092;2023-03-04T02:56:22;109.10;;;22.40;;
29026;SDS011;16120;48.608;9.092;2023-03-04T03:00:19;111.50;;;23.20;;
29026;SDS011;16120;48.608;9.092;2023-03-04T03:04:14;108.40;;;22.03;;
29026;SDS011;16120;48.608;9.092;2023-03-04T03:08:10;106.83;;;22.10;;
29026;SDS011;16120;48.608;9.092;2023-03-04T03:12:05;111.53;;;24.77;;
29026;SDS011;16120;48.608;9.092;2023-03-04T03:16:02;111.63;;;23.20;;
29026;SDS011;16120;48.608;9.092;2023-03-04T03:19:57;116.50;;;24.00;;
29026;SDS011;16120;48.608;9.092;2023-03-04T03:23:52;111.07;;;23.87;;
29026;SDS011;16120;48.608;9.092;2023-03-04T03:27:47;110.50;;;23.40;;
29026;SDS011;16120;48.608;9.092;2023-03-04T03:31:44;112.77;;;24.60;;
29026;SDS011;16120;48.608;9.092;2023-03-04T03:35:39;110.33;;;23.67;;
29026;SDS011;16120;48.608;9.092;2023-03-04T03:39:34;114.57;;;25.33;;
29026;SDS011;16120;48.608;9.092;2023-03-04T03:43:30;109.60;;;22.93;;
29026;SDS011;16120;48.608;9.092;2023-03-04T03:47:26;113.10;;;24.03;;
29026;SDS011;16120;48.608;9.092;2023-03-04T03:51:21;108.97;;;23.33;;
29026;SDS011;16120;48.608;9.092;2023-03-04T03:55:17;112.10;;;24.23;;
29026;SDS011;16120;48.608;9.092;2023-03-04T03:59:12;111.10;;;22.50;;
29026;SDS011;16120;48.608;9.092;2023-03-04T04:03:09;111.17;;;22.83;;
29026;SDS011;16120;48.608;9.092;2023-03-04T04:07:05;109.77;;;22.97;;
29026;SDS011;16120;48.608;9.092;2023-03-04T04:11:00;114.65;;;23.35;;
29026;SDS011;16120;48.608;9.092;2023-03-04T04:14:55;117.00;;;23.48;;
29026;SDS011;16120;48.608;9.092;2023-03-04T04:18:52;109.10;;;22.40;;
29026;SDS011;16120;48.608;9.092;2023-03-04T04:22:47;107.13;;;22.00;;
29026;SDS011;16120;48.608;9.092;2023-03-04T04:26:42;113.07;;;22.50;;
29026;SDS011;16120;48.608;9.092;2023-03-04T04:30:37;114.60;;;23.37;;
29026;SDS011;16120;48.608;9.092;2023-03-04T04:34:34;112.40;;;23.20;;
29026;SDS011;16120;48.608;9.092;2023-03-04T04:38:30;108.67;;;21.97;;
29026;SDS011;16120;48.608;9.092;2023-03-04T04:42:26;109.60;;;20.67;;
29026;SDS011;16120;48.608;9.092;2023-03-04T04:46:22;103.68;;;19.80;;
29026;SDS011;16120;48.608;9.092;2023-03-04T04:50:18;103.00;;;20.70;;
29026;SDS011;16120;48.608;9.092;2023-03-04T04:54:14;106.57;;;20.83;;
29026;SDS011;16120;48.608;9.092;2023-03-04T04:58:09;111.17;;;21.37;;
29026;SDS011;16120;48.608;9.092;2023-03-04T05:02:04;111.85;;;22.15;;
29026;SDS011;16120;48.608;9.092;2023-03-04T05:06:01;105.40;;;20.60;;
29026;SDS011;16120;48.608;9.092;2023-03-04T05:09:56;114.87;;;24.07;;
29026;SDS011;16120;48.608;9.092;2023-03-04T05:13:51;108.57;;;22.20;;
29026;SDS011;16120;48.608;9.092;2023-03-04T05:17:47;108.73;;;20.83;;
29026;SDS011;16120;48.608;9.092;2023-03-04T05:21:43;107.07;;;21.63;;
29026;SDS011;16120;48.608;9.092;2023-03-04T05:25:38;106.00;;;19.40;;
29026;SDS011;16120;48.608;9.092;2023-03-04T05:29:34;108.07;;;21.23;;
29026;SDS011;16120;48.608;9.092;2023-03-04T05:33:29;106.77;;;21.83;;
29026;SDS011;16120;48.608;9.092;2023-03-04T05:37:25;105.23;;;20.20;;
29026;SDS011;16120;48.608;9.092;2023-03-04T05:41:21;106.27;;;21.97;;
29026;SDS011;16120;48.608;9.092;2023-03-04T05:45:16;107.40;;;21.93;;
29026;SDS011;16120;48.608;9.092;2023-03-04T05:49:12;110.07;;;21.10;;
29026;SDS011;16120;48.608;9.092;2023-03-04T05:53:08;105.50;;;19.00;;
29026;SDS011;16120;48.608;9.092;2023-03-04T05:57:03;107.20;;;21.43;;
29026;SDS011;16120;48.608;9.092;2023-03-04T06:00:59;113.82;;;23.63;;
29026;SDS011;16120;48.608;9.092;2023-03-04T06:04:54;104.07;;;21.10;;
29026;SDS011;16120;48.608;9.092;2023-03-04T06:08:51;111.13;;;20.65;;
29026;SDS011;16120;48.608;9.092;2023-03-04T06:12:46;112.53;;;23.57;;
29026;SDS011;16120;48.608;9.092;2023-03-04T06:16:41;110.00;;;23.27;;
29026;SDS011;16120;48.608;9.092;2023-03-04T06:20:36;104.60;;;20.48;;
29026;SDS011;16120;48.608;9.092;2023-03-04T06:24:33;108.47;;;22.10;;
29026;SDS011;16120;48.608;9.092;2023-03-04T06:28:28;112.80;;;22.50;;
29026;SDS011;16120;48.608;9.092;2023-03-04T06:32:24;106.72;;;22.75;;
29026;SDS011;16120;48.608;9.092;2023-03-04T06:36:19;110.67;;;22.70;;
29026;SDS011;16120;48.608;9.092;2023-03-04T06:40:15;111.10;;;22.97;;
29026;SDS011;16120;48.608;9.092;2023-03-04T06:44:11;111.20;;;21.47;;
29026;SDS011;16120;48.608;9.092;2023-03-04T06:48:06;109.33;;;22.20;;
29026;SDS011;16120;48.608;9.092;2023-03-04T06:52:01;111.87;;;23.10;;
29026;SDS011;16120;48.608;9.092;2023-03-04T06:55:57;115.43;;;24.30;;
29026;SDS011;16120;48.608;9.092;2023-03-04T06:59:53;119.70;;;24.67;;
29026;SDS011;16120;48.608;9.092;2023-03-04T07:03:48;117.23;;;23.27;;
29026;SDS011;16120;48.608;9.092;2023-03-04T07:07:44;111.73;;;22.23;;
29026;SDS011;16120;48.608;9.092;2023-03-04T07:11:40;111.65;;;23.25;;
29026;SDS011;16120;48.608;9.092;2023-03-04T07:15:37;116.93;;;23.30;;
29026;SDS011;16120;48.608;9.092;2023-03-04T07:19:32;127.90;;;24.97;;
29026;SDS011;16120;48.608;9.092;2023-03-04T07:23:27;109.07;;;24.30;;
29026;SDS011;16120;48.608;9.092;2023-03-04T07:27:24;115.07;;;25.98;;
29026;SDS011;16120;48.608;9.092;2023-03-04T07:31:20;118.37;;;25.90;;
29026;SDS011;16120;48.608;9.092;2023-03-04T07:35:16;113.67;;;25.33;;
29026;SDS011;16120;48.608;9.092;2023-03-04T07:39:11;120.20;;;29.07;;
29026;SDS011;16120;48.608;9.092;2023-03-04T07:43:09;115.60;;;27.67;;
29026;SDS011;16120;48.608;9.092;2023-03-04T07:47:06;114.67;;;27.23;;
29026;SDS011;16120;48.608;9.092;2023-03-04T07:51:05;120.70;;;26.57;;
29026;SDS011;16120;48.608;9.092;2023-03-04T07:55:01;115.17;;;26.37;;
29026;SDS011;16120;48.608;9.092;2023-03-04T07:58:58;117.03;;;24.83;;
29026;SDS011;16120;48.608;9.092;2023-03-04T08:02:53;112.67;;;24.07;;
29026;SDS011;16120;48.608;9.092;2023-03-04T08:06:49;108.80;;;22.10;;
29026;SDS011;16120;48.608;9.092;2023-03-04T08:10:44;112.43;;;23.80;;
29026;SDS011;16120;48.608;9.092;2023-03-04T08:14:40;114.40;;;22.77;;
29026;SDS011;16120;48.608;9.092;2023-03-04T08:18:36;113.80;;;25.10;;
29026;SDS011;16120;48.608;9.092;2023-03-04T08:22:31;106.35;;;20.35;;
29026;SDS011;16120;48.608;9.092;2023-03-04T08:26:27;111.68;;;21.95;;
29026;SDS011;16120;48.608;9.092;2023-03-04T08:30:24;108.03;;;22.10;;
29026;SDS011;16120;48.608;9.092;2023-03-04T08:34:19;108.33;;;22.30;;
29026;SDS011;16120;48.608;9.092;2023-03-04T08:38:15;111.73;;;23.00;;
29026;SDS011;16120;48.608;9.092;2023-03-04T08:42:10;111.57;;;24.10;;
29026;SDS011;16120;48.608;9.092;2023-03-04T08:46:07;107.20;;;23.27;;
29026;SDS011;16120;48.608;9.092;2023-03-04T08:50:02;102.77;;;20.37;;
29026;SDS011;16120;48.608;9.092;2023-03-04T08:53:57;110.77;;;21.30;;
29026;SDS011;16120;48.608;9.092;2023-03-04T08:57:52;100.13;;;19.10;;
29026;SDS011;16120;48.608;9.092;2023-03-04T09:01:49;103.63;;;20.60;;
29026;SDS011;16120;48.608;9.092;2023-03-04T09:05:44;107.07;;;21.60;;
29026;SDS011;16120;48.608;9.092;2023-03-04T09:09:40;101.53;;;19.47;;
29026;SDS011;16120;48.608;9.092;2023-03-04T09:13:35;110.47;;;19.30;;
29026;SDS011;16120;48.608;9.092;2023-03-04T09:17:32;107.87;;;20.07;;
29026;SDS011;16120;48.608;9.092;2023-03-04T09:21:27;104.37;;;20.60;;
29026;SDS011;16120;48.608;9.092;2023-03-04T09:25:22;105.40;;;20.85;;
29026;SDS011;16120;48.608;9.092;2023-03-04T09:29:17;108.67;;;21.10;;
29026;SDS011;16120;48.608;9.092;2023-03-04T09:33:14;105.65;;;20.08;;
29026;SDS011;16120;48.608;9.092;2023-03-04T09:37:09;109.33;;;22.30;;
29026;SDS011;16120;48.608;9.092;2023-03-04T09:41:05;106.50;;;21.00;;
29026;SDS011;16120;48.608;9.092;2023-03-04T09:45:01;111.93;;;23.50;;
29026;SDS011;16120;48.608;9.092;2023-03-04T09:48:58;110.07;;;23.30;;
29026;SDS011;16120;48.608;9.092;2023-03-04T09:52:58;109.57;;;22.43;;
29026;SDS011;16120;48.608;9.092;2023-03-04T09:56:58;109.77;;;23.13;;
29026;SDS011;16120;48.608;9.092;2023-03-04T10:00:54;110.20;;;21.40;;
29026;SDS011;16120;48.608;9.092;2023-03-04T10:04:52;107.90;;;22.87;;
29026;SDS011;16120;48.608;9.092;2023-03-04T10:08:50;108.93;;;20.43;;
29026;SDS011;16120;48.608;9.092;2023-03-04T10:12:49;107.20;;;20.90;;
29026;SDS011;16120;48.608;9.092;2023-03-04T10:16:48;105.63;;;21.20;;
29026;SDS011;16120;48.608;9.092;2023-03-04T10:20:48;102.80;;;20.00;;
29026;SDS011;16120;48.608;9.092;2023-03-04T10:24:44;112.13;;;20.40;;
29026;SDS011;16120;48.608;9.092;2023-03-04T10:28:39;104.88;;;20.17;;
29026;SDS011;16120;48.608;9.092;2023-03-04T10:32:35;105.20;;;19.70;;
29026;SDS011;16120;48.608;9.092;2023-03-04T10:36:37;106.63;;;22.40;;
29026;SDS011;16120;48.608;9.092;2023-03-04T10:40:36;104.60;;;19.90;;
29026;SDS011;16120;48.608;9.092;2023-03-04T10:44:32;105.47;;;22.07;;
29026;SDS011;16120;48.608;9.092;2023-03-04T10:48:28;109.37;;;21.50;;
29026;SDS011;16120;48.608;9.092;2023-03-04T10:52:28;108.50;;;22.83;;
29026;SDS011;16120;48.608;9.092;2023-03-04T10:56:30;111.90;;;22.60;;
29026;SDS011;16120;48.608;9.092;2023-03-04T11:00:27;108.03;;;23.37;;
29026;SDS011;16120;48.608;9.092;2023-03-04T11:04:23;104.80;;;21.30;;
29026;SDS011;16120;48.608;9.092;2023-03-04T11:08:21;109.83;;;22.40;;
29026;SDS011;16120;48.608;9.092;2023-03-04T11:12:18;115.30;;;24.37;;
29026;SDS011;16120;48.608;9.092;2023-03-04T11:16:22;107.13;;;22.40;;
29026;SDS011;16120;48.608;9.092;2023-03-04T11:20:24;108.10;;;23.23;;
29026;SDS011;16120;48.608;9.092;2023-03-04T11:24:22;113.43;;;24.07;;
29026;SDS011;16120;48.608;9.092;2023-03-04T11:28:19;107.97;;;22.50;;
29026;SDS011;16120;48.608;9.092;2023-03-04T11:32:17;112.63;;;25.10;;
29026;SDS011;16120;48.608;9.092;2023-03-04T11:36:24;112.63;;;22.57;;
29026;SDS011;16120;48.608;9.092;2023-03-04T11:40:25;105.77;;;22.77;;
29026;SDS011;16120;48.608;9.092;2023-03-04T11:44:23;108.43;;;24.30;;
29026;SDS011;16120;48.608;9.092;2023-03-04T11:48:20;111.20;;;23.87;;
29026;SDS011;16120;48.608;9.092;2023-03-04T11:52:21;117.00;;;26.23;;
29026;SDS011;16120;48.608;9.092;2023-03-04T11:56:25;118.30;;;26.87;;
29026;SDS011;16120;48.608;9.092;2023-03-04T12:00:25;116.07;;;28.63;;
29026;SDS011;16120;48.608;9.092;2023-03-04T12:04:30;114.17;;;25.67;;
29026;SDS011;16120;48.608;9.092;2023-03-04T12:08:33;113.47;;;25.67;;
29026;SDS011;16120;48.608;9.092;2023-03-04T12:12:44;111.67;;;25.97;;
29026;SDS011;16120;48.608;9.092;2023-03-04T12:16:47;119.10;;;26.77;;
29026;SDS011;16120;48.608;9.092;2023-03-04T12:20:55;116.53;;;27.80;;
29026;SDS011;16120;48.608;9.092;2023-03-04T12:29:19;112.27;;;25.80;;
29026;SDS011;16120;48.608;9.092;2023-03-04T12:33:22;119.33;;;29.83;;
29026;SDS011;16120;48.608;9.092;2023-03-04T12:41:38;128.47;;;33.33;;
29026;SDS011;16120;48.608;9.092;2023-03-04T12:45:39;114.93;;;25.27;;
29026;SDS011;16120;48.608;9.092;2023-03-04T12:49:40;113.60;;;26.40;;
29026;SDS011;16120;48.608;9.092;2023-03-04T12:53:41;115.40;;;26.70;;
29026;SDS011;16120;48.608;9.092;2023-03-04T12:57:39;107.97;;;23.00;;
29026;SDS011;16120;48.608;9.092;2023-03-04T13:01:38;113.17;;;25.57;;
29026;SDS011;16120;48.608;9.092;2023-03-04T13:05:41;112.63;;;23.97;;
29026;SDS011;16120;48.608;9.092;2023-03-04T13:09:40;117.50;;;27.40;;
29026;SDS011;16120;48.608;9.092;2023-03-04T13:13:39;118.60;;;28.87;;
29026;SDS011;16120;48.608;9.092;2023-03-04T13:17:37;114.10;;;29.27;;
29026;SDS011;16120;48.608;9.092;2023-03-04T13:21:33;119.47;;;30.10;;
29026;SDS011;16120;48.608;9.092;2023-03-04T13:25:38;116.60;;;27.87;;
29026;SDS011;16120;48.608;9.092;2023-03-04T13:29:34;119.93;;;31.37;;
29026;SDS011;16120;48.608;9.092;2023-03-04T13:33:43;113.30;;;26.60;;
29026;SDS011;16120;48.608;9.092;2023-03-04T13:37:39;117.80;;;28.30;;
29026;SDS011;16120;48.608;9.092;2023-03-04T13:41:50;114.37;;;27.90;;
29026;SDS011;16120;48.608;9.092;2023-03-04T13:45:48;119.00;;;27.40;;
29026;SDS011;16120;48.608;9.092;2023-03-04T13:49:45;115.60;;;25.57;;
29026;SDS011;16120;48.608;9.092;2023-03-04T13:53:51;115.40;;;24.90;;
29026;SDS011;16120;48.608;9.092;2023-03-04T13:57:47;108.70;;;24.70;;
29026;SDS011;16120;48.608;9.092;2023-03-04T14:01:50;110.43;;;24.57;;
29026;SDS011;16120;48.608;9.092;2023-03-04T14:10:00;115.37;;;26.70;;
29026;SDS011;16120;48.608;9.092;2023-03-04T14:13:56;109.73;;;25.30;;
29026;SDS011;16120;48.608;9.092;2023-03-04T14:17:52;113.93;;;26.50;;
29026;SDS011;16120;48.608;9.092;2023-03-04T14:21:48;117.07;;;27.77;;
29026;SDS011;16120;48.608;9.092;2023-03-04T14:25:45;118.80;;;27.27;;
29026;SDS011;16120;48.608;9.092;2023-03-04T14:29:40;116.83;;;26.03;;
29026;SDS011;16120;48.608;9.092;2023-03-04T14:33:35;115.30;;;27.13;;
29026;SDS011;16120;48.608;9.092;2023-03-04T14:37:32;123.70;;;28.97;;
29026;SDS011;16120;48.608;9.092;2023-03-04T14:41:32;119.40;;;27.00;;
29026;SDS011;16120;48.608;9.092;2023-03-04T14:45:28;120.80;;;28.47;;
29026;SDS011;16120;48.608;9.092;2023-03-04T14:49:23;123.38;;;27.60;;
29026;SDS011;16120;48.608;9.092;2023-03-04T14:53:19;113.03;;;27.93;;
29026;SDS011;16120;48.608;9.092;2023-03-04T14:57:23;118.17;;;27.07;;
29026;SDS011;16120;48.608;9.092;2023-03-04T15:01:19;114.83;;;26.50;;
29026;SDS011;16120;48.608;9.092;2023-03-04T15:05:16;115.27;;;26.17;;
29026;SDS011;16120;48.608;9.092;2023-03-04T15:09:16;116.93;;;26.27;;
29026;SDS011;16120;48.608;9.092;2023-03-04T15:13:14;113.90;;;26.67;;
29026;SDS011;16120;48.608;9.092;2023-03-04T15:17:21;112.50;;;25.90;;
29026;SDS011;16120;48.608;9.092;2023-03-04T15:21:33;123.67;;;28.13;;
29026;SDS011;16120;48.608;9.092;2023-03-04T15:25:29;113.57;;;25.90;;
29026;SDS011;16120;48.608;9.092;2023-03-04T15:29:25;115.70;;;24.80;;
29026;SDS011;16120;48.608;9.092;2023-03-04T15:33:21;110.03;;;23.90;;
29026;SDS011;16120;48.608;9.092;2023-03-04T15:37:17;111.77;;;23.80;;
29026;SDS011;16120;48.608;9.092;2023-03-04T15:41:14;111.43;;;22.07;;
29026;SDS011;16120;48.608;9.092;2023-03-04T15:45:17;108.57;;;22.90;;
29026;SDS011;16120;48.608;9.092;2023-03-04T15:49:14;110.13;;;22.60;;
29026;SDS011;16120;48.608;9.092;2023-03-04T15:53:12;116.03;;;24.67;;
29026;SDS011;16120;48.608;9.092;2023-03-04T15:57:12;111.67;;;24.50;;
29026;SDS011;16120;48.608;9.092;2023-03-04T16:01:14;115.47;;;25.43;;
29026;SDS011;16120;48.608;9.092;2023-03-04T16:05:09;111.03;;;24.37;;
29026;SDS011;16120;48.608;9.092;2023-03-04T16:09:05;111.38;;;23.67;;
29026;SDS011;16120;48.608;9.092;2023-03-04T16:13:00;120.47;;;24.10;;
29026;SDS011;16120;48.608;9.092;2023-03-04T16:16:56;116.33;;;25.00;;
29026;SDS011;16120;48.608;9.092;2023-03-04T16:20:52;117.33;;;22.73;;
29026;SDS011;16120;48.608;9.092;2023-03-04T16:24:47;110.72;;;23.40;;
29026;SDS011;16120;48.608;9.092;2023-03-04T16:28:42;111.15;;;24.23;;
29026;SDS011;16120;48.608;9.092;2023-03-04T16:32:39;118.80;;;25.67;;
29026;SDS011;16120;48.608;9.092;2023-03-04T16:36:34;114.90;;;23.40;;
29026;SDS011;16120;48.608;9.092;2023-03-04T16:40:29;115.23;;;23.70;;
29026;SDS011;16120;48.608;9.092;2023-03-04T16:44:25;114.13;;;21.80;;
29026;SDS011;16120;48.608;9.092;2023-03-04T16:48:21;114.37;;;21.40;;
29026;SDS011;16120;48.608;9.092;2023-03-04T16:52:19;107.83;;;19.87;;
29026;SDS011;16120;48.608;9.092;2023-03-04T16:56:16;112.83;;;20.20;;
29026;SDS011;16120;48.608;9.092;2023-03-04T17:00:12;112.97;;;21.60;;
29026;SDS011;16120;48.608;9.092;2023-03-04T17:04:09;107.93;;;21.57;;
29026;SDS011;16120;48.608;9.092;2023-03-04T17:08:04;108.00;;;21.20;;
29026;SDS011;16120;48.608;9.092;2023-03-04T17:11:59;103.97;;;19.43;;
29026;SDS011;16120;48.608;9.092;2023-03-04T17:15:58;115.93;;;20.47;;
29026;SDS011;16120;48.608;9.092;2023-03-04T17:19:54;111.13;;;21.23;;
29026;SDS011;16120;48.608;9.092;2023-03-04T17:23:51;109.70;;;20.93;;
29026;SDS011;16120;48.608;9.092;2023-03-04T17:27:46;104.30;;;20.40;;
29026;SDS011;16120;48.608;9.092;2023-03-04T17:31:42;116.57;;;19.50;;
29026;SDS011;16120;48.608;9.092;2023-03-04T17:35:38;109.70;;;18.80;;
29026;SDS011;16120;48.608;9.092;2023-03-04T17:39:34;101.87;;;18.50;;
29026;SDS011;16120;48.608;9.092;2023-03-04T17:43:29;104.97;;;19.33;;
29026;SDS011;16120;48.608;9.092;2023-03-04T17:47:24;105.38;;;19.75;;
29026;SDS011;16120;48.608;9.092;2023-03-04T17:51:24;107.97;;;20.40;;
29026;SDS011;16120;48.608;9.092;2023-03-04T17:55:21;104.80;;;19.73;;
29026;SDS011;16120;48.608;9.092;2023-03-04T17:59:17;111.27;;;19.97;;
29026;SDS011;16120;48.608;9.092;2023-03-04T18:03:12;114.18;;;21.45;;
29026;SDS011;16120;48.608;9.092;2023-03-04T18:07:09;100.80;;;17.50;;
29026;SDS011;16120;48.608;9.092;2023-03-04T18:11:04;105.87;;;19.77;;
29026;SDS011;16120;48.608;9.092;2023-03-04T18:14:59;112.33;;;20.10;;
29026;SDS011;16120;48.608;9.092;2023-03-04T18:18:55;111.77;;;24.10;;
29026;SDS011;16120;48.608;9.092;2023-03-04T18:22:52;106.37;;;19.63;;
29026;SDS011;16120;48.608;9.092;2023-03-04T18:26:47;108.80;;;21.40;;
29026;SDS011;16120;48.608;9.092;2023-03-04T18:30:42;104.27;;;20.30;;
29026;SDS011;16120;48.608;9.092;2023-03-04T18:34:37;108.00;;;18.97;;
29026;SDS011;16120;48.608;9.092;2023-03-04T18:38:34;104.90;;;19.90;;
29026;SDS011;16120;48.608;9.092;2023-03-04T18:42:29;105.40;;;19.97;;
29026;SDS011;16120;48.608;9.092;2023-03-04T18:46:26;102.33;;;18.10;;
29026;SDS011;16120;48.608;9.092;2023-03-04T18:50:22;105.87;;;17.80;;
29026;SDS011;16120;48.608;9.092;2023-03-04T18:54:18;110.57;;;18.58;;
29026;SDS011;16120;48.608;9.092;2023-03-04T18:58:14;101.07;;;17.23;;
29026;SDS011;16120;48.608;9.092;2023-03-04T19:02:09;106.20;;;17.70;;
29026;SDS011;16120;48.608;9.092;2023-03-04T19:06:07;108.67;;;19.00;;
29026;SDS011;16120;48.608;9.092;2023-03-04T19:10:04;106.80;;;18.77;;
29026;SDS011;16120;48.608;9.092;2023-03-04T19:14:00;100.27;;;19.60;;
29026;SDS011;16120;48.608;9.092;2023-03-04T19:17:55;106.60;;;18.10;;
29026;SDS011;16120;48.608;9.092;2023-03-04T19:21:50;106.40;;;18.50;;
29026;SDS011;16120;48.608;9.092;2023-03-04T19:25:47;107.23;;;17.40;;
29026;SDS011;16120;48.608;9.092;2023-03-04T19:29:42;101.30;;;17.53;;
29026;SDS011;16120;48.608;9.092;2023-03-04T19:33:38;114.23;;;19.83;;
29026;SDS011;16120;48.608;9.092;2023-03-04T19:37:33;108.67;;;18.07;;
29026;SDS011;16120;48.608;9.092;2023-03-04T19:41:30;109.47;;;19.17;;
29026;SDS011;16120;48.608;9.092;2023-03-04T19:45:25;103.17;;;19.07;;
29026;SDS011;16120;48.608;9.092;2023-03-04T19:49:20;102.22;;;18.17;;
29026;SDS011;16120;48.608;9.092;2023-03-04T19:53:15;111.23;;;19.37;;
29026;SDS011;16120;48.608;9.092;2023-03-04T19:57:12;104.32;;;18.10;;
29026;SDS011;16120;48.608;9.092;2023-03-04T20:01:17;102.27;;;18.63;;
29026;SDS011;16120;48.608;9.092;2023-03-04T20:05:12;108.87;;;18.47;;
29026;SDS011;16120;48.608;9.092;2023-03-04T20:09:08;102.77;;;18.73;;
29026;SDS011;16120;48.608;9.092;2023-03-04T20:13:05;105.40;;;19.70;;
29026;SDS011;16120;48.608;9.092;2023-03-04T20:17:02;103.93;;;17.80;;
29026;SDS011;16120;48.608;9.092;2023-03-04T20:20:57;108.00;;;18.60;;
29026;SDS011;16120;48.608;9.092;2023-03-04T20:24:53;102.17;;;17.60;;
29026;SDS011;16120;48.608;9.092;2023-03-04T20:28:49;105.03;;;19.58;;
29026;SDS011;16120;48.608;9.092;2023-03-04T20:32:45;110.83;;;19.60;;
29026;SDS011;16120;48.608;9.092;2023-03-04T20:36:41;103.47;;;17.60;;
29026;SDS011;16120;48.608;9.092;2023-03-04T20:40:36;101.67;;;19.37;;
29026;SDS011;16120;48.608;9.092;2023-03-04T20:44:33;110.80;;;19.57;;
29026;SDS011;16120;48.608;9.092;2023-03-04T20:48:28;109.83;;;18.27;;
29026;SDS011;16120;48.608;9.092;2023-03-04T20:52:24;105.70;;;18.83;;
29026;SDS011;16120;48.608;9.092;2023-03-04T20:56:19;109.47;;;20.57;;
29026;SDS011;16120;48.608;9.092;2023-03-04T21:00:16;107.10;;;20.00;;
29026;SDS011;16120;48.608;9.092;2023-03-04T21:04:11;101.60;;;18.77;;
29026;SDS011;16120;48.608;9.092;2023-03-04T21:08:07;109.43;;;18.90;;
29026;SDS011;16120;48.608;9.092;2023-03-04T21:12:02;106.10;;;20.60;;
29026;SDS011;16120;48.608;9.092;2023-03-04T21:15:59;111.47;;;21.53;;
29026;SDS011;16120;48.608;9.092;2023-03-04T21:19:54;108.70;;;20.67;;
29026;SDS011;16120;48.608;9.092;2023-03-04T21:23:49;113.65;;;20.30;;
29026;SDS011;16120;48.608;9.092;2023-03-04T21:27:45;108.67;;;19.33;;
29026;SDS011;16120;48.608;9.092;2023-03-04T21:31:43;107.00;;;17.60;;
29026;SDS011;16120;48.608;9.092;2023-03-04T21:35:38;112.67;;;21.07;;
29026;SDS011;16120;48.608;9.092;2023-03-04T21:39:34;112.33;;;20.53;;
29026;SDS011;16120;48.608;9.092;2023-03-04T21:43:29;110.15;;;21.08;;
29026;SDS011;16120;48.608;9.092;2023-03-04T21:47:25;106.97;;;20.70;;
29026;SDS011;16120;48.608;9.092;2023-03-04T21:51:21;108.03;;;21.33;;
29026;SDS011;16120;48.608;9.092;2023-03-04T21:55:16;104.17;;;18.77;;
29026;SDS011;16120;48.608;9.092;2023-03-04T21:59:12;113.50;;;21.73;;
29026;SDS011;16120;48.608;9.092;2023-03-04T22:03:09;112.57;;;20.90;;
29026;SDS011;16120;48.608;9.092;2023-03-04T22:07:04;110.03;;;20.50;;
29026;SDS011;16120;48.608;9.092;2023-03-04T22:11:03;110.77;;;21.20;;
29026;SDS011;16120;48.608;9.092;2023-03-04T22:14:58;121.17;;;21.57;;
29026;SDS011;16120;48.608;9.092;2023-03-04T22:18:55;113.60;;;21.60;;
29026;SDS011;16120;48.608;9.092;2023-03-04T22:22:50;105.57;;;21.70;;
29026;SDS011;16120;48.608;9.092;2023-03-04T22:26:45;110.50;;;20.90;;
29026;SDS011;16120;48.608;9.092;2023-03-04T22:30:40;116.73;;;21.37;;
29026;SDS011;16120;48.608;9.092;2023-03-04T22:34:37;113.37;;;22.83;;
29026;SDS011;16120;48.608;9.092;2023-03-04T22:38:32;125.03;;;24.73;;
29026;SDS011;16120;48.608;9.092;2023-03-04T22:42:28;113.50;;;23.33;;
29026;SDS011;16120;48.608;9.092;2023-03-04T22:46:24;107.85;;;21.17;;
29026;SDS011;16120;48.608;9.092;2023-03-04T22:50:21;107.57;;;21.60;;
29026;SDS011;16120;48.608;9.092;2023-03-04T22:54:16;105.73;;;19.70;;
29026;SDS011;16120;48.608;9.092;2023-03-04T22:58:12;106.83;;;20.77;;
29026;SDS011;16120;48.608;9.092;2023-03-04T23:02:07;108.03;;;20.80;;